• Join FlightAware (Why Join?)
  • Login
  • US Flag 
01:09AM EST


 

Airport Tracker/Info


-or-


 

Live Flight TrackerFlight Track Log ✈ N449ND ✈ 22-Feb-2014 ✈ KFPR - KVRB

Flight Track Log - Related Links

Times and Time Zones

All times are in EST time to prevent confusion due to time zone crossing. See the N449ND flight status page for this flight to view local times or setup timezone preferences in your user account.

Time Position Orientation Groundspeed Altitude Reporting Facility
EST Latitude Longitude Course Direction KTS MPH feet Rate Location/Type
10:18PM 27.6147 -80.4542 237° Southwest 100 115 2,600  Level Miami Center
10:19PM 27.6017 -80.4772 237° Southwest 95 109 3,000 240 Climbing Miami Center
10:20PM 27.5886 -80.5025 240° Southwest 95 109 3,100 240 Climbing Miami Center
10:21PM 27.5775 -80.5258 242° Southwest 95 109 3,500 300 Climbing Miami Center
10:22PM 27.5831 -80.5539 283° West 83 96 3,800 120 Climbing Miami Center
10:23PM 27.5908 -80.5800 289° West 88 101 3,800  Level Miami Center
10:24PM 27.6092 -80.5969 321° Northwest 93 107 3,800  Level Miami Center
10:25PM 27.6317 -80.6142 326° Northwest 93 107 3,800  Level Miami Center
10:26PM 27.6608 -80.6106 North 86 99 3,800  Level Miami Center
10:27PM 27.6836 -80.6253 330° Northwest 86 99 3,800 -240 Level Miami Center
10:28PM 27.7086 -80.6261 358° North 91 105 3,400 -420 Descending Miami Center
10:29PM 27.7114 -80.6003 83° East 68 78 3,000 -480 Descending Miami Center
10:30PM 27.7078 -80.5722 98° East 83 96 2,500 240 Descending Miami Center
10:31PM 27.6961 -80.5436 115° Southeast 94 108 3,500 -600 Climbing Miami Center
10:32PM 27.6883 -80.5153 107° East 94 108 1,300 -1,140 Descending Miami Center
10:33PM 27.6786 -80.4892 113° Southeast 94 108 1,300 -300 Level Miami Center
10:34PM 27.6708 -80.4656 110° East 94 108 800 -480 Descending Miami Center
10:35PM 27.6611 -80.4369 111° Southeast 94 108 400 1,320 Descending Miami Center
10:36PM 27.6514 -80.4108 113° Southeast 94 108 3,500 1,560 Climbing Miami Center
10:37PM 27.6328 -80.4056 166° South 79 91 3,500  Level Miami Center